Time;durP1;ratioP1;P1;durP2;ratioP2;P2;SDS_P1;SDS_P2;PMS_P1;PMS_P2;Temp;Humidity;BMP_temperature;BMP_pressure;BME280_temperature;BME280_humidity;BME280_pressure;Samples;Min_cycle;Max_cycle;Signal;HPM_P1;HPM_P2
2021/06/10 00:00:17;;;;;;;3.73;3.43;;;15.20;99.90;;;;;;5259720;27;20720;-58
2021/06/10 00:02:43;;;;;;;3.53;3.23;;;15.10;99.90;;;;;;5261839;27;20562;-57
2021/06/10 00:05:11;;;;;;;3.70;3.00;;;15.10;99.90;;;;;;5259759;27;20157;-60
2021/06/10 00:07:39;;;;;;;3.77;3.33;;;15.10;99.90;;;;;;5259742;27;20135;-55
2021/06/10 00:10:08;;;;;;;3.90;2.93;;;15.00;99.90;;;;;;5260410;27;20153;-61
2021/06/10 00:12:34;;;;;;;3.27;2.60;;;15.00;99.90;;;;;;5261151;27;20138;-59
2021/06/10 00:15:01;;;;;;;3.67;2.70;;;14.90;99.90;;;;;;5262133;27;20107;-60
2021/06/10 00:17:27;;;;;;;3.50;2.80;;;14.90;99.90;;;;;;5261396;27;20115;-60
2021/06/10 00:19:53;;;;;;;2.70;2.50;;;14.90;99.90;;;;;;5261712;27;20123;-59
2021/06/10 00:22:20;;;;;;;3.50;2.80;;;14.90;99.90;;;;;;5261861;27;20150;-60
2021/06/10 00:24:48;;;;;;;4.70;3.20;;;14.80;99.90;;;;;;5237436;27;93989;-58
2021/06/10 00:27:20;;;;;;;3.93;3.10;;;14.80;99.90;;;;;;5261047;27;20154;-61
2021/06/10 00:29:46;;;;;;;4.03;3.40;;;14.80;99.90;;;;;;5261617;27;20107;-59
2021/06/10 00:32:13;;;;;;;3.20;2.90;;;14.80;99.90;;;;;;5261354;27;20107;-60
2021/06/10 00:34:40;;;;;;;3.50;2.90;;;14.70;99.90;;;;;;5261509;27;20126;-60
2021/06/10 00:37:09;;;;;;;5.13;3.30;;;14.70;99.90;;;;;;5261351;27;20142;-59
2021/06/10 00:39:36;;;;;;;3.40;3.10;;;14.70;99.90;;;;;;5261260;27;20122;-59
2021/06/10 00:42:04;;;;;;;5.27;3.10;;;14.70;99.90;;;;;;5261293;27;20107;-61
2021/06/10 00:44:31;;;;;;;4.17;3.00;;;14.70;99.90;;;;;;5261004;27;20146;-59
2021/06/10 00:46:57;;;;;;;5.30;2.80;;;14.60;99.90;;;;;;5261312;27;20197;-58
2021/06/10 00:49:24;;;;;;;4.27;2.90;;;14.60;99.90;;;;;;5261364;27;20632;-60
2021/06/10 00:51:51;;;;;;;4.00;2.93;;;14.60;99.90;;;;;;5261540;27;20131;-62
2021/06/10 00:54:17;;;;;;;4.10;3.17;;;14.50;99.90;;;;;;5262235;27;20138;-60
2021/06/10 00:56:44;;;;;;;2.77;2.40;;;14.50;99.90;;;;;;5260549;27;20126;-61
2021/06/10 00:59:11;;;;;;;3.53;3.23;;;14.40;99.90;;;;;;5262513;27;20146;-62
2021/06/10 01:01:38;;;;;;;4.47;2.80;;;14.40;99.90;;;;;;5263053;27;20446;-61
2021/06/10 01:04:04;;;;;;;5.57;2.83;;;14.40;99.90;;;;;;5261767;27;20139;-61
2021/06/10 01:06:36;;;;;;;5.47;3.00;;;14.30;99.90;;;;;;5261257;27;20112;-57
2021/06/10 01:09:06;;;;;;;4.10;2.70;;;14.30;99.90;;;;;;5261829;27;20118;-59
2021/06/10 01:11:40;;;;;;;3.03;2.73;;;14.30;99.90;;;;;;5261125;27;20118;-59
2021/06/10 01:14:13;;;;;;;3.90;2.87;;;14.20;99.90;;;;;;5261918;27;20569;-61
2021/06/10 01:16:44;;;;;;;3.10;2.80;;;14.20;99.90;;;;;;5261132;27;20108;-59
2021/06/10 01:19:17;;;;;;;3.17;2.87;;;14.20;99.90;;;;;;5263419;27;20142;-60
2021/06/10 01:21:45;;;;;;;3.90;3.50;;;14.20;99.90;;;;;;5261355;27;20103;-62
2021/06/10 01:24:35;;;;;;;4.07;3.43;;;14.10;99.90;;;;;;5260691;27;20150;-59
2021/06/10 01:27:13;;;;;;;4.73;3.40;;;14.10;99.90;;;;;;5261205;27;20402;-60
2021/06/10 01:29:41;;;;;;;3.30;2.80;;;14.10;99.90;;;;;;5260514;27;20112;-61
2021/06/10 01:32:07;;;;;;;4.03;3.20;;;14.00;99.90;;;;;;5261624;27;20541;-60
2021/06/10 01:34:36;;;;;;;3.97;2.90;;;14.00;99.90;;;;;;5260868;27;20107;-58
2021/06/10 01:37:04;;;;;;;4.53;3.57;;;14.00;99.90;;;;;;5260995;27;20104;-58
2021/06/10 01:39:30;;;;;;;6.30;2.83;;;14.00;99.90;;;;;;5261357;27;20500;-60
2021/06/10 01:41:58;;;;;;;3.10;2.80;;;13.90;99.90;;;;;;5261707;27;20446;-60
2021/06/10 01:44:27;;;;;;;6.50;3.40;;;13.90;99.90;;;;;;5261119;27;20566;-61
2021/06/10 01:46:54;;;;;;;3.60;3.27;;;13.90;99.90;;;;;;5263633;27;20126;-59
2021/06/10 01:49:23;;;;;;;3.97;3.00;;;13.90;99.90;;;;;;5261863;27;20108;-59
2021/06/10 01:51:52;;;;;;;3.90;3.50;;;13.80;99.90;;;;;;5261034;27;20156;-60
2021/06/10 01:54:19;;;;;;;3.53;3.10;;;13.80;99.90;;;;;;5263522;27;20107;-59
2021/06/10 01:56:47;;;;;;;3.73;3.13;;;13.70;99.90;;;;;;5263440;27;20166;-58
2021/06/10 01:59:15;;;;;;;4.47;3.40;;;13.70;99.90;;;;;;5261313;27;20111;-60
2021/06/10 02:01:47;;;;;;;3.73;3.33;;;13.70;99.90;;;;;;5260853;27;20122;-62
2021/06/10 02:04:14;;;;;;;3.80;3.03;;;13.70;99.90;;;;;;5263143;27;20107;-59
2021/06/10 02:06:42;;;;;;;5.40;3.70;;;13.60;99.90;;;;;;5263484;27;20117;-58
2021/06/10 02:09:10;;;;;;;3.77;3.23;;;13.60;99.90;;;;;;5261229;27;20110;-57
2021/06/10 02:11:38;;;;;;;5.93;3.70;;;13.60;99.90;;;;;;5261436;27;20155;-60
2021/06/10 02:14:05;;;;;;;5.20;3.63;;;13.60;99.90;;;;;;5260998;27;20139;-59
2021/06/10 02:16:34;;;;;;;4.13;3.50;;;13.60;99.90;;;;;;5261126;27;20146;-60
2021/06/10 02:19:01;;;;;;;3.87;3.47;;;13.50;99.90;;;;;;5263467;27;20129;-60
2021/06/10 02:21:28;;;;;;;3.80;3.40;;;13.50;99.90;;;;;;5260405;27;20552;-60
2021/06/10 02:23:54;;;;;;;5.13;3.20;;;13.50;99.90;;;;;;5260704;27;20174;-60
2021/06/10 02:26:22;;;;;;;4.53;3.60;;;13.50;99.90;;;;;;5260427;27;20163;-60
2021/06/10 02:28:48;;;;;;;5.33;3.83;;;13.50;99.90;;;;;;5261617;27;20161;-61
2021/06/10 02:31:15;;;;;;;4.43;3.60;;;13.40;99.90;;;;;;5261882;27;20535;-59
2021/06/10 02:33:44;;;;;;;3.93;3.53;;;13.40;99.90;;;;;;5262911;27;20122;-58
2021/06/10 02:36:15;;;;;;;5.23;4.13;;;13.40;99.90;;;;;;5263085;27;20114;-58
2021/06/10 02:38:46;;;;;;;4.40;4.00;;;13.40;99.90;;;;;;5260830;27;20931;-58
2021/06/10 02:41:15;;;;;;;4.20;3.80;;;13.40;99.90;;;;;;5260524;27;20122;-58
2021/06/10 02:43:42;;;;;;;4.67;4.23;;;13.30;99.90;;;;;;5263105;27;20107;-59
2021/06/10 02:46:11;;;;;;;5.27;4.20;;;13.30;99.90;;;;;;5260838;27;20119;-57
2021/06/10 02:48:38;;;;;;;7.23;4.60;;;13.30;99.90;;;;;;5261052;27;20612;-59
2021/06/10 02:51:06;;;;;;;6.30;4.67;;;13.20;99.90;;;;;;5260299;27;20237;-60
2021/06/10 02:53:35;;;;;;;5.70;4.47;;;13.20;99.90;;;;;;5260544;27;20119;-59
2021/06/10 02:56:04;;;;;;;5.97;5.00;;;13.20;99.90;;;;;;5262700;27;20127;-59
2021/06/10 02:58:32;;;;;;;5.90;5.30;;;13.20;99.90;;;;;;5260801;27;20112;-59
2021/06/10 03:01:03;;;;;;;6.13;5.53;;;13.10;99.90;;;;;;5260853;27;20107;-59
2021/06/10 03:03:30;;;;;;;6.43;5.07;;;13.10;99.90;;;;;;5263179;27;20162;-59
2021/06/10 03:05:57;;;;;;;6.97;4.60;;;13.10;99.90;;;;;;5260376;27;20149;-59
2021/06/10 03:08:23;;;;;;;5.77;4.77;;;13.10;99.90;;;;;;5263168;27;20108;-59
2021/06/10 03:10:54;;;;;;;5.30;4.77;;;13.00;99.90;;;;;;5263014;27;20533;-61
2021/06/10 03:13:21;;;;;;;6.33;5.40;;;13.00;99.90;;;;;;5263348;27;20103;-60
2021/06/10 03:15:48;;;;;;;5.80;5.00;;;12.90;99.90;;;;;;5263196;27;20118;-60
2021/06/10 03:18:15;;;;;;;5.57;5.00;;;12.90;99.90;;;;;;5261571;27;20135;-61
2021/06/10 03:20:42;;;;;;;6.17;5.53;;;12.90;99.90;;;;;;5260831;27;20510;-59
2021/06/10 03:23:08;;;;;;;5.90;4.93;;;12.90;99.90;;;;;;5260120;27;20154;-59
2021/06/10 03:25:35;;;;;;;9.37;5.50;;;12.90;99.90;;;;;;5259968;27;20167;-62
2021/06/10 03:28:04;;;;;;;5.67;4.80;;;12.90;99.90;;;;;;5260395;27;20107;-60
2021/06/10 03:30:31;;;;;;;7.40;4.97;;;12.80;99.90;;;;;;5260859;27;20111;-59
2021/06/10 03:32:57;;;;;;;11.00;6.27;;;12.80;99.90;;;;;;5260442;27;20138;-58
2021/06/10 03:35:25;;;;;;;7.60;5.47;;;12.80;99.90;;;;;;5261830;27;20147;-59
2021/06/10 03:37:52;;;;;;;5.50;4.87;;;12.80;99.90;;;;;;5260654;27;20112;-60
2021/06/10 03:40:19;;;;;;;7.93;5.87;;;12.80;99.90;;;;;;5260147;27;20122;-59
2021/06/10 03:42:46;;;;;;;7.73;6.97;;;12.80;99.90;;;;;;5262400;27;20458;-59
2021/06/10 03:45:15;;;;;;;8.93;6.53;;;12.90;99.90;;;;;;5260428;27;20122;-59
2021/06/10 03:47:43;;;;;;;9.70;6.90;;;12.90;99.90;;;;;;5260256;27;20111;-60
2021/06/10 03:50:10;;;;;;;7.37;6.43;;;13.00;99.90;;;;;;5262708;27;20115;-58
2021/06/10 03:52:37;;;;;;;6.43;5.77;;;13.00;99.90;;;;;;5263929;27;20585;-59
2021/06/10 03:55:05;;;;;;;7.60;6.47;;;13.00;99.90;;;;;;5261916;27;20142;-59
2021/06/10 03:57:31;;;;;;;7.57;6.20;;;13.10;99.90;;;;;;5264262;27;20167;-59
2021/06/10 03:59:58;;;;;;;8.40;6.50;;;13.10;99.90;;;;;;5262699;27;20116;-59
2021/06/10 04:02:26;;;;;;;8.60;6.17;;;13.10;99.90;;;;;;5261571;27;20232;-61
2021/06/10 04:04:54;;;;;;;7.70;6.23;;;13.20;99.90;;;;;;5263564;27;20160;-59
2021/06/10 04:07:20;;;;;;;6.70;5.37;;;13.20;99.90;;;;;;5261661;27;20112;-59
2021/06/10 04:09:48;;;;;;;6.40;5.67;;;13.30;99.90;;;;;;5261185;27;20107;-59
2021/06/10 04:12:14;;;;;;;7.20;4.80;;;13.30;99.90;;;;;;5261441;27;20115;-60
2021/06/10 04:14:40;;;;;;;8.30;5.67;;;13.30;99.90;;;;;;5263846;27;20118;-59
2021/06/10 04:17:07;;;;;;;6.93;6.23;;;13.40;99.90;;;;;;5261345;27;20125;-59
2021/06/10 04:19:35;;;;;;;6.90;6.20;;;13.40;99.90;;;;;;5261885;27;20127;-60
2021/06/10 04:22:01;;;;;;;7.20;6.27;;;13.50;99.90;;;;;;5261768;27;20154;-59
2021/06/10 04:24:28;;;;;;;8.83;6.87;;;13.60;99.90;;;;;;5261506;27;20142;-60
2021/06/10 04:26:54;;;;;;;8.53;6.23;;;13.70;99.90;;;;;;5261752;27;20107;-58
2021/06/10 04:29:20;;;;;;;7.10;6.43;;;13.90;99.90;;;;;;5263438;27;20573;-59
2021/06/10 04:31:47;;;;;;;9.83;6.40;;;14.00;99.90;;;;;;5262253;27;20530;-59
2021/06/10 04:34:13;;;;;;;10.57;8.63;;;14.10;99.90;;;;;;5261677;27;20107;-59
2021/06/10 04:36:41;;;;;;;11.00;8.13;;;14.30;99.90;;;;;;5261271;27;20104;-59
2021/06/10 04:39:08;;;;;;;9.90;7.73;;;14.30;99.90;;;;;;5261605;27;20110;-59
2021/06/10 04:41:34;;;;;;;9.73;7.60;;;14.40;99.90;;;;;;5262298;27;20531;-58
2021/06/10 04:44:01;;;;;;;9.63;7.30;;;14.60;99.90;;;;;;5262761;27;20126;-57
2021/06/10 04:46:27;;;;;;;8.00;7.20;;;14.70;99.90;;;;;;5261710;27;20116;-58
2021/06/10 04:48:56;;;;;;;8.83;7.93;;;14.80;99.90;;;;;;5261620;27;20156;-58
2021/06/10 04:51:25;;;;;;;9.50;8.20;;;15.00;99.90;;;;;;5261360;27;20155;-58
2021/06/10 04:53:54;;;;;;;8.33;7.33;;;15.20;99.90;;;;;;5261352;27;20135;-60
2021/06/10 04:56:20;;;;;;;11.53;9.37;;;15.20;99.90;;;;;;5260653;27;20127;-58
2021/06/10 04:58:46;;;;;;;11.33;9.40;;;15.30;99.90;;;;;;5262774;27;20551;-58
2021/06/10 05:01:13;;;;;;;10.30;9.27;;;15.40;99.90;;;;;;5263746;27;20119;-59
2021/06/10 05:03:39;;;;;;;13.83;10.57;;;15.50;99.90;;;;;;5261323;27;20126;-58
2021/06/10 05:06:05;;;;;;;12.67;11.30;;;15.60;99.90;;;;;;5261367;27;20151;-57
2021/06/10 05:08:32;;;;;;;14.17;10.87;;;15.80;99.90;;;;;;5263831;27;20542;-57
2021/06/10 05:11:03;;;;;;;12.47;11.00;;;15.90;99.90;;;;;;5262844;27;20134;-58
2021/06/10 05:13:29;;;;;;;11.87;10.63;;;16.10;99.90;;;;;;5263737;27;20116;-59
2021/06/10 05:15:55;;;;;;;14.23;12.73;;;16.20;99.90;;;;;;5261459;27;20775;-58
2021/06/10 05:18:22;;;;;;;15.63;14.00;;;16.20;99.90;;;;;;5260673;27;20123;-58
2021/06/10 05:20:48;;;;;;;14.43;12.27;;;16.30;99.90;;;;;;5261265;27;20107;-58
2021/06/10 05:23:15;;;;;;;14.17;12.67;;;16.40;99.90;;;;;;5262528;27;20190;-58
2021/06/10 05:25:43;;;;;;;15.97;13.23;;;16.50;99.90;;;;;;5260423;27;20169;-59
2021/06/10 05:28:11;;;;;;;16.07;14.10;;;16.70;99.90;;;;;;5260936;27;20213;-59
2021/06/10 05:30:37;;;;;;;15.50;14.00;;;16.90;99.90;;;;;;5261299;27;20126;-58
2021/06/10 05:33:04;;;;;;;18.97;14.50;;;17.10;99.90;;;;;;5260634;27;20413;-58
2021/06/10 05:35:30;;;;;;;15.83;14.33;;;17.30;99.90;;;;;;5261290;27;20173;-61
2021/06/10 05:38:00;;;;;;;17.57;13.63;;;17.50;99.90;;;;;;5261073;27;20111;-56
2021/06/10 05:40:26;;;;;;;14.77;12.23;;;17.90;99.90;;;;;;5260400;27;20456;-59
2021/06/10 05:42:54;;;;;;;14.00;12.07;;;19.30;99.90;;;;;;5262361;27;20141;-59
2021/06/10 05:45:23;;;;;;;11.97;10.77;;;23.50;96.30;;;;;;5261677;27;20147;-58
2021/06/10 05:47:50;;;;;;;10.93;9.43;;;28.20;87.30;;;;;;5260440;27;20115;-60
2021/06/10 05:50:16;;;;;;;11.13;9.90;;;30.80;73.20;;;;;;5260271;27;20122;-59
2021/06/10 05:52:43;;;;;;;10.27;8.43;;;30.50;68.10;;;;;;5262471;27;20107;-61
2021/06/10 05:55:10;;;;;;;13.40;12.00;;;28.40;70.50;;;;;;5260881;27;20132;-59
2021/06/10 05:57:37;;;;;;;15.27;10.67;;;25.80;76.10;;;;;;5261647;27;20438;-60
2021/06/10 06:00:05;;;;;;;11.63;10.53;;;23.80;82.90;;;;;;5261588;27;20108;-60
2021/06/10 06:02:33;;;;;;;16.53;12.93;;;22.40;90.10;;;;;;5263190;27;20103;-60
2021/06/10 06:05:03;;;;;;;13.43;11.67;;;21.30;92.50;;;;;;5261106;27;20112;-60
2021/06/10 06:07:32;;;;;;;18.60;12.90;;;20.60;94.60;;;;;;5262782;27;20156;-59
2021/06/10 06:09:59;;;;;;;13.93;11.47;;;20.10;96.20;;;;;;5260814;27;20145;-60
2021/06/10 06:12:25;;;;;;;11.93;10.73;;;19.80;96.60;;;;;;5259943;27;20521;-58
2021/06/10 06:14:51;;;;;;;11.77;10.53;;;19.70;97.60;;;;;;5260610;27;20134;-61
2021/06/10 06:17:19;;;;;;;16.17;11.57;;;19.70;97.70;;;;;;5261099;27;20130;-57
2021/06/10 06:19:47;;;;;;;12.83;10.43;;;19.50;97.30;;;;;;5260205;27;20147;-58
2021/06/10 06:22:13;;;;;;;12.67;10.90;;;19.40;97.10;;;;;;5261507;27;20536;-58
2021/06/10 06:24:40;;;;;;;13.40;11.07;;;19.40;98.00;;;;;;5261610;27;20140;-56
2021/06/10 06:27:08;;;;;;;11.27;10.17;;;19.40;98.00;;;;;;5261906;27;20168;-61
2021/06/10 06:29:34;;;;;;;12.43;11.17;;;19.40;98.40;;;;;;5260634;27;20122;-60
2021/06/10 06:32:05;;;;;;;11.90;10.20;;;19.50;98.80;;;;;;5263069;27;20138;-55
2021/06/10 06:34:31;;;;;;;13.57;11.70;;;19.50;98.60;;;;;;5260897;27;20119;-58
2021/06/10 06:36:58;;;;;;;11.33;10.23;;;19.60;98.70;;;;;;5260996;27;20106;-58
2021/06/10 06:39:25;;;;;;;12.83;11.30;;;19.70;98.60;;;;;;5261813;27;20560;-55
2021/06/10 06:41:52;;;;;;;12.27;10.60;;;19.80;98.50;;;;;;5263340;27;20111;-59
2021/06/10 06:44:18;;;;;;;11.47;9.43;;;19.80;97.70;;;;;;5261826;27;20431;-58
2021/06/10 06:46:45;;;;;;;13.47;9.07;;;19.90;97.90;;;;;;5261530;27;20141;-59
2021/06/10 06:49:12;;;;;;;11.40;9.57;;;19.90;97.30;;;;;;5263374;27;20122;-59
2021/06/10 06:51:38;;;;;;;14.60;11.97;;;20.00;96.50;;;;;;5261367;27;20157;-58
2021/06/10 06:54:06;;;;;;;12.33;10.47;;;20.00;96.70;;;;;;5261909;27;20100;-55
2021/06/10 06:56:34;;;;;;;10.37;9.37;;;20.20;96.70;;;;;;5260766;27;20114;-58
2021/06/10 06:59:00;;;;;;;12.80;11.07;;;20.30;96.60;;;;;;5260188;27;20154;-57
2021/06/10 07:01:26;;;;;;;10.97;9.77;;;20.30;96.00;;;;;;5262047;27;20118;-60
2021/06/10 07:03:53;;;;;;;14.90;10.03;;;20.40;96.20;;;;;;5261512;27;20107;-59
2021/06/10 07:06:21;;;;;;;12.10;10.77;;;20.40;96.30;;;;;;5260762;27;20137;-58
2021/06/10 07:08:47;;;;;;;10.23;9.23;;;20.60;95.90;;;;;;5261834;27;20450;-60
2021/06/10 07:11:15;;;;;;;11.73;9.33;;;20.60;96.10;;;;;;5260747;27;20108;-56
2021/06/10 07:13:42;;;;;;;8.90;8.00;;;20.90;95.00;;;;;;5262302;27;20118;-59
2021/06/10 07:16:08;;;;;;;9.07;8.17;;;21.30;93.60;;;;;;5260857;27;20426;-59
2021/06/10 07:18:35;;;;;;;9.57;7.50;;;21.60;92.60;;;;;;5263201;27;20538;-59
2021/06/10 07:21:01;;;;;;;8.97;7.33;;;21.70;91.80;;;;;;5260508;27;20112;-60
2021/06/10 07:23:28;;;;;;;8.27;6.93;;;21.90;91.60;;;;;;5260742;27;20116;-60
2021/06/10 07:25:55;;;;;;;9.07;7.90;;;22.40;91.10;;;;;;5258825;27;20153;-61
2021/06/10 07:28:23;;;;;;;7.10;6.45;;;24.00;88.50;;;;;;5262579;27;20122;-60
2021/06/10 07:30:50;;;;;;;9.00;6.60;;;26.70;82.40;;;;;;5263242;27;20121;-61
2021/06/10 07:33:17;;;;;;;10.05;6.15;;;27.40;77.70;;;;;;5261785;27;20107;-60
2021/06/10 07:35:43;;;;;;;7.95;5.90;;;28.30;73.50;;;;;;5263529;27;20125;-62
2021/06/10 07:38:13;;;;;;;7.55;5.90;;;28.00;71.10;;;;;;5261323;27;20127;-60
2021/06/10 07:40:40;;;;;;;5.95;5.45;;;27.30;69.60;;;;;;5262144;27;20157;-59
2021/06/10 07:43:07;;;;;;;6.45;5.85;;;26.80;74.70;;;;;;5261805;27;20115;-60
2021/06/10 07:45:35;;;;;;;6.28;5.68;;;27.60;71.00;;;;;;5262234;27;20107;-60
2021/06/10 07:48:05;;;;;;;5.22;4.72;;;28.00;69.10;;;;;;5261696;27;20107;-58
2021/06/10 07:50:35;;;;;;;5.90;5.25;;;28.10;70.00;;;;;;5261639;27;20104;-62
2021/06/10 07:53:01;;;;;;;7.68;5.20;;;29.90;68.80;;;;;;5261549;27;20160;-58
2021/06/10 07:55:28;;;;;;;6.70;5.65;;;34.10;59.90;;;;;;5261796;27;20148;-58
2021/06/10 07:57:55;;;;;;;6.97;5.05;;;35.00;54.30;;;;;;5262575;27;20118;-58
2021/06/10 08:00:26;;;;;;;4.80;4.30;;;34.90;49.10;;;;;;5263540;27;20114;-60
2021/06/10 08:02:58;;;;;;;4.40;3.42;;;39.20;48.40;;;;;;5262364;27;20119;-59
2021/06/10 08:05:24;;;;;;;4.05;3.53;;;44.70;39.10;;;;;;5262449;27;20557;-60
2021/06/10 08:07:52;;;;;;;5.53;3.62;;;48.20;34.10;;;;;;5264289;27;20107;-59
2021/06/10 08:10:18;;;;;;;4.93;3.37;;;50.60;31.40;;;;;;5260703;27;20111;-61
2021/06/10 08:12:44;;;;;;;5.10;3.78;;;52.00;30.40;;;;;;5261625;27;20507;-58
2021/06/10 08:15:12;;;;;;;3.90;3.55;;;53.10;29.60;;;;;;5261486;27;20107;-59
2021/06/10 08:17:38;;;;;;;4.32;3.92;;;54.10;28.60;;;;;;5261557;27;20126;-58
2021/06/10 08:20:09;;;;;;;4.57;4.18;;;54.80;28.50;;;;;;5261783;27;20543;-59
2021/06/10 08:22:36;;;;;;;6.07;4.93;;;54.80;28.00;;;;;;5261475;27;20174;-61
2021/06/10 08:25:02;;;;;;;7.10;4.72;;;54.10;28.00;;;;;;5260216;27;20177;-60
2021/06/10 08:27:29;;;;;;;7.60;5.30;;;54.60;28.00;;;;;;5263430;27;20452;-60
2021/06/10 08:29:58;;;;;;;7.90;5.93;;;55.10;27.70;;;;;;5261292;27;20122;-58
2021/06/10 08:32:24;;;;;;;4.47;3.85;;;55.00;27.30;;;;;;5261350;27;20122;-59
2021/06/10 08:34:51;;;;;;;6.28;5.20;;;54.60;27.60;;;;;;5264271;27;20106;-59
2021/06/10 08:37:18;;;;;;;8.43;4.82;;;53.70;28.00;;;;;;5262683;27;20178;-59
2021/06/10 08:39:45;;;;;;;7.70;5.05;;;54.60;28.10;;;;;;5263988;27;20107;-61
2021/06/10 08:42:11;;;;;;;6.15;5.47;;;54.90;27.70;;;;;;5262774;27;20107;-61
2021/06/10 08:44:38;;;;;;;6.62;5.72;;;55.90;27.30;;;;;;5261375;27;20153;-62
2021/06/10 08:47:07;;;;;;;8.05;7.22;;;55.30;27.40;;;;;;5261234;27;20138;-62
2021/06/10 08:49:34;;;;;;;6.15;5.62;;;54.90;27.30;;;;;;5261691;27;20159;-60
2021/06/10 08:52:05;;;;;;;6.85;6.30;;;55.10;27.50;;;;;;5263452;27;20104;-62
2021/06/10 08:54:34;;;;;;;8.55;7.80;;;55.40;27.50;;;;;;5261705;27;20121;-58
2021/06/10 08:57:01;;;;;;;9.18;8.50;;;55.90;27.30;;;;;;5261291;27;20170;-59
2021/06/10 08:59:28;;;;;;;7.28;6.57;;;56.60;26.90;;;;;;5261638;27;20155;-62
2021/06/10 09:01:55;;;;;;;8.20;6.37;;;56.80;27.00;;;;;;5261428;27;20391;-62
2021/06/10 09:04:21;;;;;;;8.80;8.10;;;56.00;27.00;;;;;;5262029;27;20131;-59
2021/06/10 09:06:50;;;;;;;9.10;8.27;;;55.10;27.00;;;;;;5261206;27;20111;-59
2021/06/10 09:09:20;;;;;;;10.52;9.35;;;54.20;27.50;;;;;;5260917;27;20151;-59
2021/06/10 09:11:48;;;;;;;8.32;7.62;;;52.80;27.30;;;;;;5261903;27;20174;-61
2021/06/10 09:14:15;;;;;;;6.53;5.93;;;52.70;27.80;;;;;;5261101;27;20126;-60
2021/06/10 09:16:43;;;;;;;6.30;5.80;;;53.20;27.50;;;;;;5261540;27;20169;-60
2021/06/10 09:19:13;;;;;;;9.00;7.25;;;54.10;27.40;;;;;;5263863;27;20134;-59
2021/06/10 09:21:42;;;;;;;9.32;6.40;;;52.80;27.60;;;;;;5261350;27;20177;-62
2021/06/10 09:24:20;;;;;;;7.85;6.18;;;53.80;27.40;;;;;;5262187;27;20624;-59
2021/06/10 09:26:58;;;;;;;11.18;7.68;;;54.10;27.80;;;;;;5262377;27;20141;-59
2021/06/10 09:29:45;;;;;;;9.65;7.37;;;53.60;27.30;;;;;;5261210;27;20127;-59
2021/06/10 09:32:22;;;;;;;8.98;7.53;;;53.50;27.50;;;;;;5263570;27;20154;-62
2021/06/10 09:34:52;;;;;;;9.57;8.65;;;53.60;27.30;;;;;;5263512;27;20112;-61
2021/06/10 09:37:32;;;;;;;9.35;7.30;;;52.70;27.40;;;;;;5261453;27;20569;-60
2021/06/10 09:40:00;;;;;;;7.62;6.72;;;52.00;27.90;;;;;;5259669;27;20134;-59
2021/06/10 09:42:33;;;;;;;8.27;6.93;;;51.60;27.80;;;;;;5260033;27;20136;-59
2021/06/10 09:45:01;;;;;;;7.78;6.05;;;51.60;28.20;;;;;;5260292;27;20164;-60
2021/06/10 09:47:29;;;;;;;6.87;6.28;;;51.50;28.30;;;;;;5261184;27;20555;-60
2021/06/10 09:49:56;;;;;;;7.20;5.43;;;50.60;28.10;;;;;;5261596;27;20613;-60
2021/06/10 09:52:22;;;;;;;8.68;5.40;;;49.00;28.80;;;;;;5261123;27;20122;-60
2021/06/10 09:54:52;;;;;;;5.22;4.72;;;45.20;30.40;;;;;;5261767;27;20943;-62
2021/06/10 09:57:19;;;;;;;4.95;4.60;;;41.40;31.40;;;;;;5262887;27;20569;-62
2021/06/10 09:59:49;;;;;;;6.25;5.20;;;38.00;33.90;;;;;;5260689;27;20151;-59
2021/06/10 10:02:21;;;;;;;7.03;6.32;;;35.20;35.40;;;;;;5261104;27;20111;-60
2021/06/10 10:05:05;;;;;;;9.48;6.15;;;33.30;38.60;;;;;;5260711;27;20201;-61
2021/06/10 10:07:35;;;;;;;7.28;6.40;;;31.70;40.10;;;;;;5261331;27;20107;-59
2021/06/10 10:10:04;;;;;;;6.80;6.10;;;30.50;41.90;;;;;;5260119;27;20111;-59
2021/06/10 10:12:31;;;;;;;7.57;5.10;;;30.00;42.40;;;;;;5260644;27;20111;-60
2021/06/10 10:15:00;;;;;;;6.72;4.68;;;29.60;43.60;;;;;;5262777;27;20889;-59
2021/06/10 10:17:27;;;;;;;6.10;5.50;;;29.20;44.60;;;;;;5260902;27;20139;-59
2021/06/10 10:19:55;;;;;;;7.82;5.93;;;29.00;44.50;;;;;;5260384;27;20115;-60
2021/06/10 10:22:21;;;;;;;6.60;5.75;;;28.70;44.40;;;;;;5261385;27;20467;-59
2021/06/10 10:24:48;;;;;;;6.20;5.60;;;28.50;43.20;;;;;;5260259;27;20134;-60
2021/06/10 10:27:15;;;;;;;5.12;4.62;;;28.10;43.60;;;;;;5260522;27;20122;-60
2021/06/10 10:29:44;;;;;;;7.12;4.95;;;27.90;45.30;;;;;;5260792;27;20168;-58
2021/06/10 10:32:16;;;;;;;4.75;4.10;;;27.80;45.20;;;;;;5262924;27;20159;-60
2021/06/10 10:34:42;;;;;;;7.60;5.10;;;27.80;47.50;;;;;;5260687;27;20125;-59
2021/06/10 10:37:24;;;;;;;6.12;4.72;;;27.70;45.30;;;;;;5260108;27;20119;-59
2021/06/10 10:39:54;;;;;;;5.47;4.37;;;27.70;45.70;;;;;;5261091;27;20111;-59
2021/06/10 10:42:34;;;;;;;5.03;4.40;;;27.70;46.40;;;;;;5260765;27;20107;-58
2021/06/10 10:45:12;;;;;;;5.70;3.75;;;27.80;45.10;;;;;;5261371;27;20121;-59
2021/06/10 10:47:47;;;;;;;5.97;4.03;;;27.60;43.40;;;;;;5261443;27;20121;-59
2021/06/10 10:50:18;;;;;;;5.90;4.90;;;27.50;43.40;;;;;;5262977;27;20129;-59
2021/06/10 10:52:55;;;;;;;4.35;3.70;;;27.50;45.50;;;;;;5262167;27;20124;-59
2021/06/10 10:55:31;;;;;;;7.18;3.90;;;27.40;43.90;;;;;;5261171;27;20519;-60
2021/06/10 10:58:03;;;;;;;4.65;3.17;;;27.50;43.70;;;;;;5260334;27;20117;-61
2021/06/10 11:00:51;;;;;;;3.15;2.83;;;27.60;45.30;;;;;;5260408;27;20130;-60
2021/06/10 11:03:25;;;;;;;3.53;3.10;;;27.70;43.00;;;;;;5260478;27;20146;-59
2021/06/10 11:05:53;;;;;;;7.53;4.55;;;27.60;42.60;;;;;;5260743;27;20161;-58
2021/06/10 11:08:20;;;;;;;4.65;4.25;;;27.40;43.00;;;;;;5260882;27;20106;-58
2021/06/10 11:11:06;;;;;;;4.05;3.25;;;27.50;45.30;;;;;;5260208;27;20161;-61
2021/06/10 11:13:47;;;;;;;7.35;3.05;;;27.50;43.40;;;;;;5260482;27;20135;-58
2021/06/10 11:16:14;;;;;;;4.43;2.60;;;27.60;41.80;;;;;;5261361;27;20530;-60
2021/06/10 11:18:52;;;;;;;3.67;3.30;;;27.50;42.10;;;;;;5260508;27;20108;-60
2021/06/10 11:21:48;;;;;;;5.25;3.22;;;27.70;42.60;;;;;;5259817;27;20131;-59
2021/06/10 11:24:17;;;;;;;6.70;2.95;;;27.70;42.50;;;;;;5260697;27;20135;-59
2021/06/10 11:26:48;;;;;;;4.62;3.05;;;27.60;43.30;;;;;;5261851;27;20145;-59
2021/06/10 11:29:17;;;;;;;6.62;4.20;;;27.70;43.10;;;;;;5260596;27;20118;-61
2021/06/10 11:32:19;;;;;;;6.10;3.55;;;27.70;42.00;;;;;;5261232;27;20131;-61
2021/06/10 11:34:54;;;;;;;3.45;2.95;;;27.70;42.60;;;;;;5260488;27;20451;-60
2021/06/10 11:37:23;;;;;;;4.62;3.37;;;27.80;42.00;;;;;;5260830;27;20130;-59
2021/06/10 11:39:50;;;;;;;4.00;3.40;;;27.80;43.00;;;;;;5259958;27;20111;-58
2021/06/10 11:42:17;;;;;;;5.40;3.47;;;27.90;41.20;;;;;;5261799;27;20146;-58
2021/06/10 11:44:45;;;;;;;4.72;3.62;;;27.80;40.90;;;;;;5259551;27;20118;-57
2021/06/10 11:47:31;;;;;;;5.62;3.58;;;27.70;39.40;;;;;;5256022;27;20480;-57
2021/06/10 11:49:59;;;;;;;4.30;3.58;;;27.60;41.10;;;;;;5260320;27;20152;-57
2021/06/10 11:52:26;;;;;;;5.87;3.53;;;27.60;41.50;;;;;;5261846;27;20115;-59
2021/06/10 11:55:05;;;;;;;3.92;3.40;;;27.60;40.10;;;;;;5260639;27;20135;-58
2021/06/10 11:57:32;;;;;;;5.87;3.33;;;27.60;40.70;;;;;;5261839;27;20150;-58
2021/06/10 12:00:04;;;;;;;4.45;3.30;;;27.60;40.90;;;;;;5260227;27;20525;-59
2021/06/10 12:02:31;;;;;;;2.90;2.60;;;27.60;41.10;;;;;;5260451;27;20103;-60
2021/06/10 12:05:17;;;;;;;13.65;3.92;;;27.50;42.00;;;;;;5261887;27;20116;-60
2021/06/10 12:07:44;;;;;;;3.75;3.33;;;27.60;40.90;;;;;;5260387;27;20107;-58
2021/06/10 12:10:16;;;;;;;5.55;3.50;;;27.70;41.50;;;;;;5261263;27;20127;-59
2021/06/10 12:12:47;;;;;;;4.07;3.50;;;27.70;42.80;;;;;;5261670;27;20209;-59
2021/06/10 12:15:40;;;;;;;5.00;4.07;;;27.80;42.00;;;;;;5263761;27;20482;-61
2021/06/10 12:18:08;;;;;;;3.50;3.20;;;27.90;41.40;;;;;;5261855;27;20131;-61
2021/06/10 12:23:09;;;;;;;5.75;3.45;;;27.80;40.90;;;;;;5260847;27;20191;-58
2021/06/10 12:25:36;;;;;;;5.35;3.40;;;27.80;42.00;;;;;;5261680;27;20107;-59
2021/06/10 12:28:03;;;;;;;6.12;2.87;;;27.80;41.60;;;;;;5261466;27;20125;-59
2021/06/10 12:30:33;;;;;;;4.20;2.42;;;27.70;41.00;;;;;;5261672;27;20512;-62
2021/06/10 12:33:14;;;;;;;4.28;3.25;;;27.70;41.20;;;;;;5262262;27;20122;-58
2021/06/10 12:35:42;;;;;;;3.97;3.50;;;27.70;40.80;;;;;;5263276;27;20107;-58
2021/06/10 12:38:11;;;;;;;4.47;3.05;;;27.70;39.30;;;;;;5261891;27;20138;-59
2021/06/10 12:40:40;;;;;;;3.15;2.78;;;27.60;39.60;;;;;;5260257;27;20115;-60
2021/06/10 12:43:12;;;;;;;7.03;3.45;;;27.60;41.00;;;;;;5261394;27;20143;-59
2021/06/10 12:45:41;;;;;;;6.03;3.40;;;27.60;40.30;;;;;;5261517;27;20134;-59
2021/06/10 12:48:25;;;;;;;6.53;3.80;;;27.60;40.70;;;;;;5261337;27;20156;-60
2021/06/10 12:51:32;;;;;;;4.25;3.37;;;27.60;40.90;;;;;;5261527;27;20134;-58
2021/06/10 12:54:04;;;;;;;4.90;3.95;;;27.60;41.30;;;;;;5194708;27;20128;-58